sensor_id;sensor_type;location;lat;lon;timestamp;P1;durP1;ratioP1;P2;durP2;ratioP2
18933;SDS011;9599;53.706;10.384;2022-11-12T00:00:50;21.07;;;12.50;;
18933;SDS011;9599;53.706;10.384;2022-11-12T00:03:38;19.67;;;11.80;;
18933;SDS011;9599;53.706;10.384;2022-11-12T00:06:24;21.23;;;12.50;;
18933;SDS011;9599;53.706;10.384;2022-11-12T00:09:11;19.23;;;12.03;;
18933;SDS011;9599;53.706;10.384;2022-11-12T00:11:58;19.07;;;12.33;;
18933;SDS011;9599;53.706;10.384;2022-11-12T00:14:44;20.80;;;12.07;;
18933;SDS011;9599;53.706;10.384;2022-11-12T00:17:31;20.60;;;12.23;;
18933;SDS011;9599;53.706;10.384;2022-11-12T00:20:19;20.27;;;11.73;;
18933;SDS011;9599;53.706;10.384;2022-11-12T00:23:05;18.60;;;12.03;;
18933;SDS011;9599;53.706;10.384;2022-11-12T00:25:58;22.53;;;12.23;;
18933;SDS011;9599;53.706;10.384;2022-11-12T00:28:45;21.87;;;12.13;;
18933;SDS011;9599;53.706;10.384;2022-11-12T00:31:31;20.73;;;11.87;;
18933;SDS011;9599;53.706;10.384;2022-11-12T00:34:19;21.27;;;12.27;;
18933;SDS011;9599;53.706;10.384;2022-11-12T00:37:06;22.70;;;12.20;;
18933;SDS011;9599;53.706;10.384;2022-11-12T00:39:53;20.63;;;12.30;;
18933;SDS011;9599;53.706;10.384;2022-11-12T00:42:40;19.80;;;12.57;;
18933;SDS011;9599;53.706;10.384;2022-11-12T00:45:27;22.93;;;13.00;;
18933;SDS011;9599;53.706;10.384;2022-11-12T00:48:13;21.17;;;13.37;;
18933;SDS011;9599;53.706;10.384;2022-11-12T00:51:00;19.57;;;12.07;;
18933;SDS011;9599;53.706;10.384;2022-11-12T00:53:49;20.63;;;13.00;;
18933;SDS011;9599;53.706;10.384;2022-11-12T00:56:36;20.87;;;13.00;;
18933;SDS011;9599;53.706;10.384;2022-11-12T00:59:22;21.47;;;13.20;;
18933;SDS011;9599;53.706;10.384;2022-11-12T01:02:09;22.27;;;13.30;;
18933;SDS011;9599;53.706;10.384;2022-11-12T01:04:55;22.53;;;13.40;;
18933;SDS011;9599;53.706;10.384;2022-11-12T01:07:42;24.03;;;13.57;;
18933;SDS011;9599;53.706;10.384;2022-11-12T01:10:29;21.80;;;13.77;;
18933;SDS011;9599;53.706;10.384;2022-11-12T01:13:16;21.60;;;13.33;;
18933;SDS011;9599;53.706;10.384;2022-11-12T01:16:05;22.07;;;13.57;;
18933;SDS011;9599;53.706;10.384;2022-11-12T01:18:53;22.80;;;12.90;;
18933;SDS011;9599;53.706;10.384;2022-11-12T01:21:42;23.63;;;13.13;;
18933;SDS011;9599;53.706;10.384;2022-11-12T01:24:29;21.93;;;13.57;;
18933;SDS011;9599;53.706;10.384;2022-11-12T01:27:16;24.87;;;13.73;;
18933;SDS011;9599;53.706;10.384;2022-11-12T01:30:03;23.20;;;13.30;;
18933;SDS011;9599;53.706;10.384;2022-11-12T01:32:50;21.97;;;13.37;;
18933;SDS011;9599;53.706;10.384;2022-11-12T01:35:36;25.00;;;13.97;;
18933;SDS011;9599;53.706;10.384;2022-11-12T01:38:23;24.53;;;13.63;;
18933;SDS011;9599;53.706;10.384;2022-11-12T01:41:12;22.97;;;14.33;;
18933;SDS011;9599;53.706;10.384;2022-11-12T01:44:08;21.73;;;13.33;;
18933;SDS011;9599;53.706;10.384;2022-11-12T01:46:57;22.67;;;13.63;;
18933;SDS011;9599;53.706;10.384;2022-11-12T01:49:48;23.23;;;13.97;;
18933;SDS011;9599;53.706;10.384;2022-11-12T01:52:41;23.10;;;13.37;;
18933;SDS011;9599;53.706;10.384;2022-11-12T01:55:31;23.73;;;13.47;;
18933;SDS011;9599;53.706;10.384;2022-11-12T01:58:21;22.43;;;13.93;;
18933;SDS011;9599;53.706;10.384;2022-11-12T02:01:13;22.50;;;13.40;;
18933;SDS011;9599;53.706;10.384;2022-11-12T02:04:00;25.30;;;13.83;;
18933;SDS011;9599;53.706;10.384;2022-11-12T02:06:46;22.87;;;13.17;;
18933;SDS011;9599;53.706;10.384;2022-11-12T02:09:36;24.70;;;13.27;;
18933;SDS011;9599;53.706;10.384;2022-11-12T02:12:23;21.93;;;12.87;;
18933;SDS011;9599;53.706;10.384;2022-11-12T02:15:27;21.70;;;12.77;;
18933;SDS011;9599;53.706;10.384;2022-11-12T02:18:15;21.87;;;13.13;;
18933;SDS011;9599;53.706;10.384;2022-11-12T02:21:03;21.63;;;12.50;;
18933;SDS011;9599;53.706;10.384;2022-11-12T02:24:00;25.17;;;13.53;;
18933;SDS011;9599;53.706;10.384;2022-11-12T02:26:49;23.60;;;13.53;;
18933;SDS011;9599;53.706;10.384;2022-11-12T02:29:38;23.43;;;13.30;;
18933;SDS011;9599;53.706;10.384;2022-11-12T02:32:30;21.83;;;13.40;;
18933;SDS011;9599;53.706;10.384;2022-11-12T02:35:17;24.63;;;13.80;;
18933;SDS011;9599;53.706;10.384;2022-11-12T02:38:03;24.67;;;13.77;;
18933;SDS011;9599;53.706;10.384;2022-11-12T02:40:52;27.37;;;14.40;;
18933;SDS011;9599;53.706;10.384;2022-11-12T02:43:38;23.13;;;13.93;;
18933;SDS011;9599;53.706;10.384;2022-11-12T02:46:25;25.27;;;14.10;;
18933;SDS011;9599;53.706;10.384;2022-11-12T02:49:12;24.53;;;13.93;;
18933;SDS011;9599;53.706;10.384;2022-11-12T02:51:58;23.50;;;14.33;;
18933;SDS011;9599;53.706;10.384;2022-11-12T02:54:45;23.87;;;13.77;;
18933;SDS011;9599;53.706;10.384;2022-11-12T02:57:33;22.73;;;13.97;;
18933;SDS011;9599;53.706;10.384;2022-11-12T03:00:19;21.67;;;12.90;;
18933;SDS011;9599;53.706;10.384;2022-11-12T03:03:06;21.43;;;13.47;;
18933;SDS011;9599;53.706;10.384;2022-11-12T03:05:53;20.90;;;12.77;;
18933;SDS011;9599;53.706;10.384;2022-11-12T03:08:41;21.33;;;12.70;;
18933;SDS011;9599;53.706;10.384;2022-11-12T03:11:28;21.73;;;12.80;;
18933;SDS011;9599;53.706;10.384;2022-11-12T03:14:15;22.47;;;12.77;;
18933;SDS011;9599;53.706;10.384;2022-11-12T03:17:02;22.53;;;13.50;;
18933;SDS011;9599;53.706;10.384;2022-11-12T03:19:48;18.77;;;12.73;;
18933;SDS011;9599;53.706;10.384;2022-11-12T03:22:35;20.57;;;12.40;;
18933;SDS011;9599;53.706;10.384;2022-11-12T03:25:22;22.13;;;12.67;;
18933;SDS011;9599;53.706;10.384;2022-11-12T03:28:09;20.80;;;13.00;;
18933;SDS011;9599;53.706;10.384;2022-11-12T03:30:58;20.87;;;12.30;;
18933;SDS011;9599;53.706;10.384;2022-11-12T03:33:45;19.53;;;12.57;;
18933;SDS011;9599;53.706;10.384;2022-11-12T03:36:32;20.23;;;11.87;;
18933;SDS011;9599;53.706;10.384;2022-11-12T03:39:18;20.00;;;12.40;;
18933;SDS011;9599;53.706;10.384;2022-11-12T03:42:04;22.57;;;12.50;;
18933;SDS011;9599;53.706;10.384;2022-11-12T03:44:51;19.07;;;12.13;;
18933;SDS011;9599;53.706;10.384;2022-11-12T03:47:40;21.57;;;12.37;;
18933;SDS011;9599;53.706;10.384;2022-11-12T03:50:28;19.40;;;11.43;;
18933;SDS011;9599;53.706;10.384;2022-11-12T03:53:15;19.97;;;10.80;;
18933;SDS011;9599;53.706;10.384;2022-11-12T03:56:02;21.50;;;12.20;;
18933;SDS011;9599;53.706;10.384;2022-11-12T03:58:48;21.33;;;11.47;;
18933;SDS011;9599;53.706;10.384;2022-11-12T04:01:34;20.40;;;11.80;;
18933;SDS011;9599;53.706;10.384;2022-11-12T04:04:22;25.77;;;12.90;;
18933;SDS011;9599;53.706;10.384;2022-11-12T04:07:29;19.57;;;12.37;;
18933;SDS011;9599;53.706;10.384;2022-11-12T04:10:34;20.40;;;12.33;;
18933;SDS011;9599;53.706;10.384;2022-11-12T04:13:20;20.70;;;12.33;;
18933;SDS011;9599;53.706;10.384;2022-11-12T04:16:13;20.03;;;12.83;;
18933;SDS011;9599;53.706;10.384;2022-11-12T04:19:19;21.70;;;12.13;;
18933;SDS011;9599;53.706;10.384;2022-11-12T04:22:24;20.77;;;12.53;;
18933;SDS011;9599;53.706;10.384;2022-11-12T04:25:11;19.77;;;12.60;;
18933;SDS011;9599;53.706;10.384;2022-11-12T04:28:15;19.80;;;12.87;;
18933;SDS011;9599;53.706;10.384;2022-11-12T04:31:01;22.37;;;13.10;;
18933;SDS011;9599;53.706;10.384;2022-11-12T04:33:47;20.57;;;12.13;;
18933;SDS011;9599;53.706;10.384;2022-11-12T04:36:33;20.40;;;12.17;;
18933;SDS011;9599;53.706;10.384;2022-11-12T04:39:21;21.03;;;13.17;;
18933;SDS011;9599;53.706;10.384;2022-11-12T04:42:08;20.30;;;13.33;;
18933;SDS011;9599;53.706;10.384;2022-11-12T04:45:13;21.53;;;13.23;;
18933;SDS011;9599;53.706;10.384;2022-11-12T04:48:00;21.40;;;13.50;;
18933;SDS011;9599;53.706;10.384;2022-11-12T04:50:47;23.57;;;13.27;;
18933;SDS011;9599;53.706;10.384;2022-11-12T04:53:35;23.83;;;14.60;;
18933;SDS011;9599;53.706;10.384;2022-11-12T04:56:23;23.40;;;13.60;;
18933;SDS011;9599;53.706;10.384;2022-11-12T04:59:10;22.87;;;13.67;;
18933;SDS011;9599;53.706;10.384;2022-11-12T05:01:56;22.03;;;14.20;;
18933;SDS011;9599;53.706;10.384;2022-11-12T05:04:43;20.07;;;13.33;;
18933;SDS011;9599;53.706;10.384;2022-11-12T05:07:30;22.63;;;14.80;;
18933;SDS011;9599;53.706;10.384;2022-11-12T05:10:17;20.57;;;14.13;;
18933;SDS011;9599;53.706;10.384;2022-11-12T05:13:05;20.83;;;13.97;;
18933;SDS011;9599;53.706;10.384;2022-11-12T05:15:52;21.30;;;14.40;;
18933;SDS011;9599;53.706;10.384;2022-11-12T05:18:38;22.07;;;14.47;;
18933;SDS011;9599;53.706;10.384;2022-11-12T05:21:24;23.97;;;14.23;;
18933;SDS011;9599;53.706;10.384;2022-11-12T05:24:29;21.30;;;14.03;;
18933;SDS011;9599;53.706;10.384;2022-11-12T05:27:26;21.83;;;13.90;;
18933;SDS011;9599;53.706;10.384;2022-11-12T05:30:14;22.30;;;13.77;;
18933;SDS011;9599;53.706;10.384;2022-11-12T05:33:00;21.93;;;13.00;;
18933;SDS011;9599;53.706;10.384;2022-11-12T05:35:47;20.87;;;14.00;;
18933;SDS011;9599;53.706;10.384;2022-11-12T05:38:34;24.23;;;14.60;;
18933;SDS011;9599;53.706;10.384;2022-11-12T05:41:21;20.77;;;13.43;;
18933;SDS011;9599;53.706;10.384;2022-11-12T05:44:08;20.63;;;13.50;;
18933;SDS011;9599;53.706;10.384;2022-11-12T05:46:56;20.57;;;13.03;;
18933;SDS011;9599;53.706;10.384;2022-11-12T05:49:42;19.40;;;12.97;;
18933;SDS011;9599;53.706;10.384;2022-11-12T05:52:29;19.87;;;12.90;;
18933;SDS011;9599;53.706;10.384;2022-11-12T05:55:16;21.23;;;13.70;;
18933;SDS011;9599;53.706;10.384;2022-11-12T05:58:03;20.33;;;12.93;;
18933;SDS011;9599;53.706;10.384;2022-11-12T06:00:50;20.90;;;13.37;;
18933;SDS011;9599;53.706;10.384;2022-11-12T06:03:37;22.37;;;14.03;;
18933;SDS011;9599;53.706;10.384;2022-11-12T06:06:24;20.83;;;12.67;;
18933;SDS011;9599;53.706;10.384;2022-11-12T06:09:10;18.70;;;13.50;;
18933;SDS011;9599;53.706;10.384;2022-11-12T06:11:57;19.60;;;12.80;;
18933;SDS011;9599;53.706;10.384;2022-11-12T06:14:43;20.80;;;13.70;;
18933;SDS011;9599;53.706;10.384;2022-11-12T06:17:30;21.07;;;12.53;;
18933;SDS011;9599;53.706;10.384;2022-11-12T06:20:18;22.63;;;13.63;;
18933;SDS011;9599;53.706;10.384;2022-11-12T06:23:04;21.47;;;13.83;;
18933;SDS011;9599;53.706;10.384;2022-11-12T06:25:50;20.67;;;13.47;;
18933;SDS011;9599;53.706;10.384;2022-11-12T06:28:37;20.67;;;14.13;;
18933;SDS011;9599;53.706;10.384;2022-11-12T06:31:23;19.03;;;12.40;;
18933;SDS011;9599;53.706;10.384;2022-11-12T06:34:10;20.50;;;12.93;;
18933;SDS011;9599;53.706;10.384;2022-11-12T06:36:58;22.43;;;13.77;;
18933;SDS011;9599;53.706;10.384;2022-11-12T06:39:45;22.70;;;14.10;;
18933;SDS011;9599;53.706;10.384;2022-11-12T06:42:31;21.10;;;13.00;;
18933;SDS011;9599;53.706;10.384;2022-11-12T06:45:18;20.67;;;12.53;;
18933;SDS011;9599;53.706;10.384;2022-11-12T06:48:05;18.93;;;13.07;;
18933;SDS011;9599;53.706;10.384;2022-11-12T06:50:51;17.13;;;11.93;;
18933;SDS011;9599;53.706;10.384;2022-11-12T06:53:39;21.57;;;13.20;;
18933;SDS011;9599;53.706;10.384;2022-11-12T06:56:25;21.07;;;12.50;;
18933;SDS011;9599;53.706;10.384;2022-11-12T06:59:12;21.23;;;13.00;;
18933;SDS011;9599;53.706;10.384;2022-11-12T07:01:58;20.47;;;14.03;;
18933;SDS011;9599;53.706;10.384;2022-11-12T07:04:45;19.63;;;12.90;;
18933;SDS011;9599;53.706;10.384;2022-11-12T07:07:31;20.27;;;13.97;;
18933;SDS011;9599;53.706;10.384;2022-11-12T07:10:20;19.10;;;12.70;;
18933;SDS011;9599;53.706;10.384;2022-11-12T07:13:06;21.67;;;13.70;;
18933;SDS011;9599;53.706;10.384;2022-11-12T07:15:55;23.43;;;14.27;;
18933;SDS011;9599;53.706;10.384;2022-11-12T07:18:42;21.43;;;13.73;;
18933;SDS011;9599;53.706;10.384;2022-11-12T07:21:29;20.87;;;13.23;;
18933;SDS011;9599;53.706;10.384;2022-11-12T07:24:16;20.77;;;14.03;;
18933;SDS011;9599;53.706;10.384;2022-11-12T07:27:04;20.57;;;13.83;;
18933;SDS011;9599;53.706;10.384;2022-11-12T07:29:50;23.33;;;14.57;;
18933;SDS011;9599;53.706;10.384;2022-11-12T07:32:37;22.90;;;14.30;;
18933;SDS011;9599;53.706;10.384;2022-11-12T07:35:30;25.43;;;14.10;;
18933;SDS011;9599;53.706;10.384;2022-11-12T07:38:17;22.70;;;15.00;;
18933;SDS011;9599;53.706;10.384;2022-11-12T07:41:04;25.83;;;15.43;;
18933;SDS011;9599;53.706;10.384;2022-11-12T07:43:53;26.90;;;16.37;;
18933;SDS011;9599;53.706;10.384;2022-11-12T07:46:40;26.50;;;15.70;;
18933;SDS011;9599;53.706;10.384;2022-11-12T07:49:26;28.50;;;14.83;;
18933;SDS011;9599;53.706;10.384;2022-11-12T07:52:13;27.97;;;16.80;;
18933;SDS011;9599;53.706;10.384;2022-11-12T07:54:59;25.97;;;15.00;;
18933;SDS011;9599;53.706;10.384;2022-11-12T07:57:46;25.57;;;14.83;;
18933;SDS011;9599;53.706;10.384;2022-11-12T08:00:33;24.87;;;15.77;;
18933;SDS011;9599;53.706;10.384;2022-11-12T08:03:20;24.37;;;14.67;;
18933;SDS011;9599;53.706;10.384;2022-11-12T08:06:07;25.90;;;16.20;;
18933;SDS011;9599;53.706;10.384;2022-11-12T08:08:54;28.40;;;16.53;;
18933;SDS011;9599;53.706;10.384;2022-11-12T08:11:41;25.67;;;15.83;;
18933;SDS011;9599;53.706;10.384;2022-11-12T08:14:28;24.80;;;15.77;;
18933;SDS011;9599;53.706;10.384;2022-11-12T08:17:16;26.07;;;15.87;;
18933;SDS011;9599;53.706;10.384;2022-11-12T08:20:02;25.83;;;16.17;;
18933;SDS011;9599;53.706;10.384;2022-11-12T08:22:50;26.17;;;16.13;;
18933;SDS011;9599;53.706;10.384;2022-11-12T08:25:36;22.97;;;15.07;;
18933;SDS011;9599;53.706;10.384;2022-11-12T08:28:23;24.23;;;15.33;;
18933;SDS011;9599;53.706;10.384;2022-11-12T08:31:10;23.73;;;15.63;;
18933;SDS011;9599;53.706;10.384;2022-11-12T08:33:59;23.17;;;15.10;;
18933;SDS011;9599;53.706;10.384;2022-11-12T08:36:55;27.17;;;15.27;;
18933;SDS011;9599;53.706;10.384;2022-11-12T08:39:42;24.97;;;15.50;;
18933;SDS011;9599;53.706;10.384;2022-11-12T08:42:28;26.73;;;15.53;;
18933;SDS011;9599;53.706;10.384;2022-11-12T08:45:15;25.43;;;15.67;;
18933;SDS011;9599;53.706;10.384;2022-11-12T08:48:02;24.93;;;15.87;;
18933;SDS011;9599;53.706;10.384;2022-11-12T08:50:52;24.90;;;15.13;;
18933;SDS011;9599;53.706;10.384;2022-11-12T08:53:39;25.97;;;15.70;;
18933;SDS011;9599;53.706;10.384;2022-11-12T08:56:25;26.13;;;15.50;;
18933;SDS011;9599;53.706;10.384;2022-11-12T08:59:12;22.93;;;14.77;;
18933;SDS011;9599;53.706;10.384;2022-11-12T09:01:58;23.83;;;14.87;;
18933;SDS011;9599;53.706;10.384;2022-11-12T09:04:45;22.37;;;14.67;;
18933;SDS011;9599;53.706;10.384;2022-11-12T09:07:32;22.10;;;14.50;;
18933;SDS011;9599;53.706;10.384;2022-11-12T09:10:34;23.57;;;14.57;;
18933;SDS011;9599;53.706;10.384;2022-11-12T09:13:21;21.70;;;14.23;;
18933;SDS011;9599;53.706;10.384;2022-11-12T09:16:09;21.43;;;14.57;;
18933;SDS011;9599;53.706;10.384;2022-11-12T09:18:55;20.73;;;13.80;;
18933;SDS011;9599;53.706;10.384;2022-11-12T09:21:42;21.77;;;13.47;;
18933;SDS011;9599;53.706;10.384;2022-11-12T09:24:30;19.53;;;13.37;;
18933;SDS011;9599;53.706;10.384;2022-11-12T09:27:16;22.73;;;13.40;;
18933;SDS011;9599;53.706;10.384;2022-11-12T09:30:03;21.60;;;12.97;;
18933;SDS011;9599;53.706;10.384;2022-11-12T09:32:55;18.77;;;13.07;;
18933;SDS011;9599;53.706;10.384;2022-11-12T09:35:42;20.97;;;13.43;;
18933;SDS011;9599;53.706;10.384;2022-11-12T09:38:30;19.17;;;13.30;;
18933;SDS011;9599;53.706;10.384;2022-11-12T09:41:20;20.50;;;13.10;;
18933;SDS011;9599;53.706;10.384;2022-11-12T09:44:11;20.73;;;13.27;;
18933;SDS011;9599;53.706;10.384;2022-11-12T09:47:00;18.90;;;13.03;;
18933;SDS011;9599;53.706;10.384;2022-11-12T09:49:54;19.53;;;12.00;;
18933;SDS011;9599;53.706;10.384;2022-11-12T09:52:47;19.67;;;12.83;;
18933;SDS011;9599;53.706;10.384;2022-11-12T09:55:38;19.43;;;12.60;;
18933;SDS011;9599;53.706;10.384;2022-11-12T09:58:27;18.57;;;12.83;;
18933;SDS011;9599;53.706;10.384;2022-11-12T10:01:15;17.90;;;11.80;;
18933;SDS011;9599;53.706;10.384;2022-11-12T10:04:18;19.17;;;12.23;;
18933;SDS011;9599;53.706;10.384;2022-11-12T10:07:14;19.67;;;12.60;;
18933;SDS011;9599;53.706;10.384;2022-11-12T10:10:09;19.07;;;12.40;;
18933;SDS011;9599;53.706;10.384;2022-11-12T10:13:03;19.83;;;11.67;;
18933;SDS011;9599;53.706;10.384;2022-11-12T10:16:04;19.97;;;12.47;;
18933;SDS011;9599;53.706;10.384;2022-11-12T10:19:21;17.23;;;11.80;;
18933;SDS011;9599;53.706;10.384;2022-11-12T10:22:20;21.17;;;12.10;;
18933;SDS011;9599;53.706;10.384;2022-11-12T10:25:14;19.63;;;12.57;;
18933;SDS011;9599;53.706;10.384;2022-11-12T10:28:06;18.07;;;12.20;;
18933;SDS011;9599;53.706;10.384;2022-11-12T10:31:06;17.57;;;11.90;;
18933;SDS011;9599;53.706;10.384;2022-11-12T10:34:04;17.10;;;11.73;;
18933;SDS011;9599;53.706;10.384;2022-11-12T10:37:05;17.30;;;11.07;;
18933;SDS011;9599;53.706;10.384;2022-11-12T10:39:55;20.70;;;11.80;;
18933;SDS011;9599;53.706;10.384;2022-11-12T10:42:54;17.63;;;11.20;;
18933;SDS011;9599;53.706;10.384;2022-11-12T10:45:42;18.20;;;10.90;;
18933;SDS011;9599;53.706;10.384;2022-11-12T10:48:31;17.93;;;11.47;;
18933;SDS011;9599;53.706;10.384;2022-11-12T10:51:22;17.87;;;11.23;;
18933;SDS011;9599;53.706;10.384;2022-11-12T10:54:18;16.13;;;11.20;;
18933;SDS011;9599;53.706;10.384;2022-11-12T10:57:17;15.67;;;10.70;;
18933;SDS011;9599;53.706;10.384;2022-11-12T11:00:06;15.87;;;11.03;;
18933;SDS011;9599;53.706;10.384;2022-11-12T11:03:00;18.20;;;10.90;;
18933;SDS011;9599;53.706;10.384;2022-11-12T11:05:53;16.20;;;10.73;;
18933;SDS011;9599;53.706;10.384;2022-11-12T11:08:44;15.23;;;10.20;;
18933;SDS011;9599;53.706;10.384;2022-11-12T11:11:32;17.20;;;10.57;;
18933;SDS011;9599;53.706;10.384;2022-11-12T11:14:27;15.40;;;10.20;;
18933;SDS011;9599;53.706;10.384;2022-11-12T11:17:15;13.70;;;9.23;;
18933;SDS011;9599;53.706;10.384;2022-11-12T11:20:04;13.83;;;9.47;;
18933;SDS011;9599;53.706;10.384;2022-11-12T11:23:03;14.03;;;9.40;;
18933;SDS011;9599;53.706;10.384;2022-11-12T11:25:56;14.47;;;9.73;;
18933;SDS011;9599;53.706;10.384;2022-11-12T11:28:54;14.57;;;9.23;;
18933;SDS011;9599;53.706;10.384;2022-11-12T11:31:48;12.17;;;8.73;;
18933;SDS011;9599;53.706;10.384;2022-11-12T11:34:41;12.20;;;8.30;;
18933;SDS011;9599;53.706;10.384;2022-11-12T11:37:35;14.97;;;9.03;;
18933;SDS011;9599;53.706;10.384;2022-11-12T11:40:33;15.30;;;9.83;;
18933;SDS011;9599;53.706;10.384;2022-11-12T11:43:27;19.83;;;9.17;;
18933;SDS011;9599;53.706;10.384;2022-11-12T11:46:30;12.43;;;8.17;;
18933;SDS011;9599;53.706;10.384;2022-11-12T11:52:50;13.20;;;8.20;;
18933;SDS011;9599;53.706;10.384;2022-11-12T11:55:50;12.43;;;8.23;;
18933;SDS011;9599;53.706;10.384;2022-11-12T11:59:01;12.10;;;7.70;;
18933;SDS011;9599;53.706;10.384;2022-11-12T12:02:06;14.43;;;7.13;;
18933;SDS011;9599;53.706;10.384;2022-11-12T12:05:18;11.90;;;7.40;;
18933;SDS011;9599;53.706;10.384;2022-11-12T12:08:14;10.70;;;6.73;;
18933;SDS011;9599;53.706;10.384;2022-11-12T12:11:14;12.77;;;7.00;;
18933;SDS011;9599;53.706;10.384;2022-11-12T12:14:10;12.20;;;6.93;;
18933;SDS011;9599;53.706;10.384;2022-11-12T12:17:05;10.23;;;6.53;;
18933;SDS011;9599;53.706;10.384;2022-11-12T12:20:01;9.80;;;5.97;;
18933;SDS011;9599;53.706;10.384;2022-11-12T12:22:58;8.97;;;6.03;;
18933;SDS011;9599;53.706;10.384;2022-11-12T12:25:48;8.77;;;5.97;;
18933;SDS011;9599;53.706;10.384;2022-11-12T12:28:46;8.43;;;6.03;;
18933;SDS011;9599;53.706;10.384;2022-11-12T12:31:39;10.20;;;5.77;;
18933;SDS011;9599;53.706;10.384;2022-11-12T12:34:32;7.40;;;5.27;;
18933;SDS011;9599;53.706;10.384;2022-11-12T12:37:21;8.00;;;5.37;;
18933;SDS011;9599;53.706;10.384;2022-11-12T12:40:13;7.50;;;5.10;;
18933;SDS011;9599;53.706;10.384;2022-11-12T12:43:06;10.40;;;5.80;;
18933;SDS011;9599;53.706;10.384;2022-11-12T12:46:00;8.17;;;5.40;;
18933;SDS011;9599;53.706;10.384;2022-11-12T12:48:48;8.53;;;5.33;;
18933;SDS011;9599;53.706;10.384;2022-11-12T12:51:37;9.27;;;5.73;;
18933;SDS011;9599;53.706;10.384;2022-11-12T12:57:43;9.07;;;5.50;;
18933;SDS011;9599;53.706;10.384;2022-11-12T13:00:32;8.70;;;5.23;;
18933;SDS011;9599;53.706;10.384;2022-11-12T13:06:53;8.77;;;5.20;;
18933;SDS011;9599;53.706;10.384;2022-11-12T13:09:40;7.93;;;5.53;;
18933;SDS011;9599;53.706;10.384;2022-11-12T13:15:43;8.57;;;5.30;;
18933;SDS011;9599;53.706;10.384;2022-11-12T13:21:43;7.43;;;5.03;;
18933;SDS011;9599;53.706;10.384;2022-11-12T13:30:58;7.57;;;5.00;;
18933;SDS011;9599;53.706;10.384;2022-11-12T13:33:46;7.77;;;5.70;;
18933;SDS011;9599;53.706;10.384;2022-11-12T13:36:33;7.73;;;5.60;;
18933;SDS011;9599;53.706;10.384;2022-11-12T13:39:20;12.20;;;6.17;;
18933;SDS011;9599;53.706;10.384;2022-11-12T13:42:10;11.77;;;6.33;;
18933;SDS011;9599;53.706;10.384;2022-11-12T13:45:17;11.67;;;6.80;;
18933;SDS011;9599;53.706;10.384;2022-11-12T13:48:07;9.40;;;6.47;;
18933;SDS011;9599;53.706;10.384;2022-11-12T13:50:58;10.47;;;6.57;;
18933;SDS011;9599;53.706;10.384;2022-11-12T13:53:48;10.40;;;6.33;;
18933;SDS011;9599;53.706;10.384;2022-11-12T13:56:34;10.60;;;6.30;;
18933;SDS011;9599;53.706;10.384;2022-11-12T13:59:24;8.53;;;5.73;;
18933;SDS011;9599;53.706;10.384;2022-11-12T14:02:18;9.27;;;6.20;;
18933;SDS011;9599;53.706;10.384;2022-11-12T14:05:13;8.93;;;5.77;;
18933;SDS011;9599;53.706;10.384;2022-11-12T14:08:20;10.87;;;5.97;;
18933;SDS011;9599;53.706;10.384;2022-11-12T14:11:27;9.23;;;5.60;;
18933;SDS011;9599;53.706;10.384;2022-11-12T14:14:34;9.27;;;5.97;;
18933;SDS011;9599;53.706;10.384;2022-11-12T14:17:33;8.00;;;6.10;;
18933;SDS011;9599;53.706;10.384;2022-11-12T14:20:27;9.17;;;5.37;;
18933;SDS011;9599;53.706;10.384;2022-11-12T14:23:20;11.67;;;6.27;;
18933;SDS011;9599;53.706;10.384;2022-11-12T14:26:10;8.83;;;6.33;;
18933;SDS011;9599;53.706;10.384;2022-11-12T14:28:57;9.47;;;5.97;;
18933;SDS011;9599;53.706;10.384;2022-11-12T14:31:45;11.90;;;5.90;;
18933;SDS011;9599;53.706;10.384;2022-11-12T14:34:32;11.33;;;6.20;;
18933;SDS011;9599;53.706;10.384;2022-11-12T14:37:27;9.63;;;6.57;;
18933;SDS011;9599;53.706;10.384;2022-11-12T14:40:26;8.40;;;5.83;;
18933;SDS011;9599;53.706;10.384;2022-11-12T14:43:18;9.63;;;6.00;;
18933;SDS011;9599;53.706;10.384;2022-11-12T14:46:20;11.30;;;6.13;;
18933;SDS011;9599;53.706;10.384;2022-11-12T14:49:13;12.03;;;5.83;;
18933;SDS011;9599;53.706;10.384;2022-11-12T14:52:06;8.73;;;5.93;;
18933;SDS011;9599;53.706;10.384;2022-11-12T14:54:56;9.60;;;5.60;;
18933;SDS011;9599;53.706;10.384;2022-11-12T14:57:48;10.73;;;6.10;;
18933;SDS011;9599;53.706;10.384;2022-11-12T15:00:37;8.73;;;5.47;;
18933;SDS011;9599;53.706;10.384;2022-11-12T15:03:30;8.33;;;5.63;;
18933;SDS011;9599;53.706;10.384;2022-11-12T15:06:20;9.13;;;5.97;;
18933;SDS011;9599;53.706;10.384;2022-11-12T15:09:15;8.87;;;5.97;;
18933;SDS011;9599;53.706;10.384;2022-11-12T15:12:06;9.70;;;5.70;;
18933;SDS011;9599;53.706;10.384;2022-11-12T15:15:02;10.20;;;6.00;;
18933;SDS011;9599;53.706;10.384;2022-11-12T15:17:57;8.87;;;5.87;;
18933;SDS011;9599;53.706;10.384;2022-11-12T15:20:44;9.70;;;6.10;;
18933;SDS011;9599;53.706;10.384;2022-11-12T15:23:32;13.43;;;6.97;;
18933;SDS011;9599;53.706;10.384;2022-11-12T15:26:22;10.60;;;6.30;;
18933;SDS011;9599;53.706;10.384;2022-11-12T15:29:12;11.93;;;7.63;;
18933;SDS011;9599;53.706;10.384;2022-11-12T15:35:30;34.13;;;22.30;;
18933;SDS011;9599;53.706;10.384;2022-11-12T15:38:19;17.73;;;10.20;;
18933;SDS011;9599;53.706;10.384;2022-11-12T15:41:18;28.53;;;18.23;;
18933;SDS011;9599;53.706;10.384;2022-11-12T15:44:07;44.90;;;30.23;;
18933;SDS011;9599;53.706;10.384;2022-11-12T15:46:54;31.20;;;20.80;;
18933;SDS011;9599;53.706;10.384;2022-11-12T15:49:46;30.87;;;19.87;;
18933;SDS011;9599;53.706;10.384;2022-11-12T15:52:33;26.80;;;18.03;;
18933;SDS011;9599;53.706;10.384;2022-11-12T15:55:20;28.07;;;18.30;;
18933;SDS011;9599;53.706;10.384;2022-11-12T15:58:10;26.13;;;17.93;;
18933;SDS011;9599;53.706;10.384;2022-11-12T16:01:02;33.47;;;20.83;;
18933;SDS011;9599;53.706;10.384;2022-11-12T16:03:50;34.70;;;22.47;;
18933;SDS011;9599;53.706;10.384;2022-11-12T16:06:36;32.70;;;22.87;;
18933;SDS011;9599;53.706;10.384;2022-11-12T16:09:22;32.20;;;21.20;;
18933;SDS011;9599;53.706;10.384;2022-11-12T16:12:09;24.30;;;17.63;;
18933;SDS011;9599;53.706;10.384;2022-11-12T16:14:58;16.20;;;11.73;;
18933;SDS011;9599;53.706;10.384;2022-11-12T16:17:45;19.30;;;11.80;;
18933;SDS011;9599;53.706;10.384;2022-11-12T16:20:34;16.90;;;9.97;;
18933;SDS011;9599;53.706;10.384;2022-11-12T16:23:20;18.23;;;11.13;;
18933;SDS011;9599;53.706;10.384;2022-11-12T16:26:07;18.60;;;12.60;;
18933;SDS011;9599;53.706;10.384;2022-11-12T16:28:56;21.77;;;12.63;;
18933;SDS011;9599;53.706;10.384;2022-11-12T16:31:46;20.13;;;12.80;;
18933;SDS011;9599;53.706;10.384;2022-11-12T16:34:33;20.83;;;12.50;;
18933;SDS011;9599;53.706;10.384;2022-11-12T16:37:19;22.07;;;12.83;;
18933;SDS011;9599;53.706;10.384;2022-11-12T16:40:08;21.80;;;13.73;;
18933;SDS011;9599;53.706;10.384;2022-11-12T16:42:57;21.10;;;14.30;;
18933;SDS011;9599;53.706;10.384;2022-11-12T16:45:44;22.17;;;13.97;;
18933;SDS011;9599;53.706;10.384;2022-11-12T16:48:31;22.20;;;13.00;;
18933;SDS011;9599;53.706;10.384;2022-11-12T16:51:18;21.17;;;13.73;;
18933;SDS011;9599;53.706;10.384;2022-11-12T16:54:06;20.27;;;12.90;;
18933;SDS011;9599;53.706;10.384;2022-11-12T16:56:53;19.43;;;11.80;;
18933;SDS011;9599;53.706;10.384;2022-11-12T16:59:40;19.03;;;11.70;;
18933;SDS011;9599;53.706;10.384;2022-11-12T17:02:26;18.87;;;12.03;;
18933;SDS011;9599;53.706;10.384;2022-11-12T17:05:15;17.07;;;11.50;;